Талаги

СКИДКИ НА СМАРТФОНЫ!

Карта отелей и гостиниц, располагающихся рядом с аэропортом Талаги :

Талаги
Архангельск
Архангельская область 64° 36' 0.9" N, 40° 42' 59.4" E
Код аэродрома ИКАО
ULAA
Код аэродрома RU
УЛАА
Координаты
N64.60025° E040.71650°
Превышение над уровнем моря
19
Основная полоса
08/26
Курс магнитный
081/261
Длина основной ВПП
2500
Ширина основной ВПП
44
Покрытие основной ВПП
Твёрдое (бетон)
Освещение ВПП
Постоянное
Тип: 
Аэродром
Класс аэродрома: 
Международный
Принадлежность: 
ГА
Статус: 
Действующий
Сайт: 
arhaero.ru
Страна: 
Россия
Регион: 
Архангельская область
Город: 
Архангельск
Дополнительная информация: 
Оператор: ОАО «Аэропорт Архангельск». Совместного базирования (ФАВТ и МОРФ). Нкр.=(600)м. Базируется 89-е отдельное авиационное звено 21-го корпуса ПВО в составе 2-х Ми-8МТВ-1 и 2-х Ан-26. ДПРМ: 690-"AZ/КМ", БПРМ: 334-"A/К". Визуальное маневрирование южнее АД запрещено. Военный индекс: XLAA / ЬЛАА.
Схемы аэропортов: 
Погода: 

Авиационная погода в Архангельске

Регион: 
Погода METAR: 
ULAA 190100Z 19002MPS CAVOK 17/15 Q1026 R08/CLRD70 NOSIG RMK QFE768/1024
Время наблюдения
2022-08-19T01:00:00Z
Температура C
17.0
Точка росы
15.0
Направление ветра
190
Скорость ветра (узлы)
4
Метео видимость
6.21
Облачность
CAVOK
Нижняя граница облачности (футы)
Явления погоды
Условия полета
VFR
Аэропорт подробнее: 
Прогноз TAF: 

Скидки на навигаторы!

Найти трансфер

С помощью этой формы Вы можете найти трансфер из аэропорта Талаги в город, аэропорт или вокзал:

Погода в аэропортах:

Авиационная погода в Миккели

Регион: 
Погода METAR: 
EFMI 190050Z AUTO 08001KT 4900 BCFG NCD 17/17 Q1019
Время наблюдения
2022-08-19T00:50:00Z
Температура C
17.0
Точка росы
17.0
Направление ветра
80
Скорость ветра (узлы)
1
Метео видимость
3.04
Облачность
CLR
Нижняя граница облачности (футы)
Явления погоды
BCFG
Условия полета
MVFR
CLR — нет облаков ниже 3000 м
FG – туман (небо не видно, температура воздуха выше нуля или ноль);

Авиационная погода в Богашево

Регион: 
Погода METAR: 
UNTT 190100Z 25003MPS 2300 -RA BR OVC002 10/10 Q1011 R21/290050 NOSIG RMK QFE743
Время наблюдения
2022-08-19T01:00:00Z
Температура C
10.0
Точка росы
10.0
Направление ветра
250
Скорость ветра (узлы)
6
Метео видимость
1.43
Облачность
OVC
Нижняя граница облачности (футы)
200
Явления погоды
-RA BR
Условия полета
LIFR
Аэропорт подробнее: 
OVC – сплошная облачность;
-RA - слабый дождь; BR – дымка (видимость от 1 до 9 км);

Авиационная погода в Кневичи

Регион: 
Погода METAR: 
UHWW 190100Z 14005MPS 9999 -SHRA SCT017 BKN040CB 23/20 Q1000 R25L/0///70 NOSIG RMK QFE749
Время наблюдения
2022-08-19T01:00:00Z
Температура C
23.0
Точка росы
20.0
Направление ветра
140
Скорость ветра (узлы)
10
Метео видимость
6.21
Облачность
SCT
BKN
Нижняя граница облачности (футы)
1700
4000
Явления погоды
-SHRA
Условия полета
VFR
Аэропорт подробнее: 
SCT – разбросанная отдельная облачность; BKN – значительная (рассеянная, разорванная) облачность;
-SHRA - слабый ливневой дождь;

Авиационная погода в Липецке

Регион: 
Погода METAR: 
UUOL 190100Z 06008MPS 9999 -RA BKN036 16/15 Q1016 R33/090060 NOSIG
Время наблюдения
2022-08-19T01:00:00Z
Температура C
16.0
Точка росы
15.0
Направление ветра
60
Скорость ветра (узлы)
16
Метео видимость
6.21
Облачность
BKN
Нижняя граница облачности (футы)
3600
Явления погоды
-RA
Условия полета
VFR
Аэропорт подробнее: 
BKN – значительная (рассеянная, разорванная) облачность;
-RA - слабый дождь;